Terminal Aerodrome Forecast
Issued by NWS

Home | Current Version | Previous Version | Text Only | Print | Product List | Glossary On
Versions: 1 2 3 4 5 6 7 8 9 10 11 12 13 14 15 16 17
667
FTUS43 KILX 050132 AAA
TAFDEC
TAF AMD
KDEC 050132Z 0502/0524 26006KT 2SM BR OVC002
     FM050900 26006KT 1/2SM FZFG BKN003
     FM051600 16006KT P6SM BKN008
     FM051900 16007KT P6SM SCT025=

USA.gov is the U.S. government's official web portal to all federal, state and local government web resources and services.